Time;durP1;ratioP1;P1;durP2;ratioP2;P2;SDS_P1;SDS_P2;PMS_P1;PMS_P2;Temp;Humidity;BMP_temperature;BMP_pressure;BME280_temperature;BME280_humidity;BME280_pressure;Samples;Min_cycle;Max_cycle;Signal;HPM_P1;HPM_P2
2023/03/06 00:00:37;;;;;;;10.00;7.83;;;;;;;;;;6245432;28;20190;-59
2023/03/06 00:03:38;;;;;;;12.20;8.17;;;;;;;;;;6264344;28;20209;-60
2023/03/06 00:06:39;;;;;;;12.17;8.43;;;;;;;;;;6242253;28;20281;-59
2023/03/06 00:09:40;;;;;;;10.50;7.27;;;;;;;;;;6248639;28;20252;-59
2023/03/06 00:12:41;;;;;;;12.73;8.30;;;;;;;;;;6246542;28;20232;-59
2023/03/06 00:15:42;;;;;;;11.63;7.97;;;;;;;;;;6254034;28;20204;-59
2023/03/06 00:18:43;;;;;;;11.40;8.33;;;;;;;;;;6264516;28;20273;-60
2023/03/06 00:21:45;;;;;;;10.43;7.30;;;;;;;;;;6264250;28;20214;-60
2023/03/06 00:24:46;;;;;;;14.70;9.00;;;;;;;;;;6260138;28;20197;-60
2023/03/06 00:27:47;;;;;;;10.47;7.23;;;;;;;;;;6252777;28;20197;-59
2023/03/06 00:30:48;;;;;;;9.70;7.30;;;;;;;;;;6261887;28;20264;-59
2023/03/06 00:33:49;;;;;;;10.37;7.30;;;;;;;;;;6253244;28;20240;-59
2023/03/06 00:36:50;;;;;;;10.13;7.00;;;;;;;;;;6264274;28;20190;-60
2023/03/06 00:39:51;;;;;;;10.63;7.50;;;;;;;;;;6285767;28;20189;-59
2023/03/06 00:42:52;;;;;;;13.20;8.73;;;;;;;;;;6239480;28;20198;-59
2023/03/06 00:45:53;;;;;;;11.73;7.50;;;;;;;;;;6261493;28;20296;-59
2023/03/06 00:48:54;;;;;;;10.63;7.30;;;;;;;;;;6245166;28;20247;-60
2023/03/06 00:51:55;;;;;;;10.73;7.40;;;;;;;;;;6264274;28;20201;-60
2023/03/06 00:54:57;;;;;;;10.43;7.60;;;;;;;;;;6271119;28;20220;-60
2023/03/06 00:57:58;;;;;;;9.57;7.50;;;;;;;;;;6250799;28;20186;-60
2023/03/06 01:00:59;;;;;;;11.27;7.80;;;;;;;;;;6246799;28;20189;-59
2023/03/06 01:04:03;;;;;;;10.83;8.27;;;;;;;;;;6275551;28;20254;-59
2023/03/06 01:07:04;;;;;;;9.90;7.70;;;;;;;;;;6267739;28;20197;-60
2023/03/06 01:10:06;;;;;;;11.10;7.47;;;;;;;;;;6275031;28;20196;-60
2023/03/06 01:13:08;;;;;;;9.70;7.30;;;;;;;;;;6253522;28;20218;-59
2023/03/06 01:16:10;;;;;;;11.63;7.00;;;;;;;;;;6276799;28;20182;-59
2023/03/06 01:19:11;;;;;;;12.83;8.60;;;;;;;;;;6267898;28;20198;-60
2023/03/06 01:22:12;;;;;;;11.00;7.40;;;;;;;;;;6258512;28;20691;-60
2023/03/06 01:25:13;;;;;;;11.93;8.33;;;;;;;;;;6241414;28;20209;-59
2023/03/06 01:28:15;;;;;;;12.17;7.73;;;;;;;;;;6273143;28;20272;-60
2023/03/06 01:31:16;;;;;;;12.03;7.53;;;;;;;;;;6251707;28;20204;-59
2023/03/06 01:34:17;;;;;;;11.00;6.87;;;;;;;;;;6264028;28;20275;-60
2023/03/06 01:37:18;;;;;;;14.50;7.87;;;;;;;;;;6247004;28;20198;-59
2023/03/06 01:40:19;;;;;;;10.43;7.43;;;;;;;;;;6261269;28;20189;-59
2023/03/06 01:43:24;;;;;;;10.67;7.73;;;;;;;;;;6272264;28;20236;-59
2023/03/06 01:46:32;;;;;;;10.77;8.00;;;;;;;;;;6268573;28;20229;-59
2023/03/06 01:49:33;;;;;;;10.67;7.60;;;;;;;;;;6252607;28;20198;-60
2023/03/06 01:52:39;;;;;;;12.73;8.17;;;;;;;;;;6274129;28;20193;-60
2023/03/06 01:55:40;;;;;;;10.27;7.33;;;;;;;;;;6273214;28;20187;-60
2023/03/06 01:58:45;;;;;;;12.37;7.97;;;;;;;;;;6274442;28;20197;-59
2023/03/06 02:01:46;;;;;;;11.93;7.53;;;;;;;;;;6256379;28;20182;-59
2023/03/06 02:04:47;;;;;;;10.33;7.27;;;;;;;;;;6238752;28;20186;-59
2023/03/06 02:07:49;;;;;;;13.67;7.73;;;;;;;;;;6262116;28;20182;-59
2023/03/06 02:11:01;;;;;;;11.20;8.10;;;;;;;;;;6264677;28;20273;-59
2023/03/06 02:14:02;;;;;;;10.37;7.67;;;;;;;;;;6266251;28;20221;-60
2023/03/06 02:17:03;;;;;;;10.80;8.00;;;;;;;;;;6252400;28;20232;-60
2023/03/06 02:20:07;;;;;;;11.47;7.63;;;;;;;;;;6259657;28;20280;-60
2023/03/06 02:23:08;;;;;;;12.33;7.73;;;;;;;;;;6267427;28;20197;-60
2023/03/06 02:26:10;;;;;;;10.10;7.47;;;;;;;;;;6264997;28;20213;-60
2023/03/06 02:29:11;;;;;;;13.23;7.83;;;;;;;;;;6266044;28;20309;-60
2023/03/06 02:32:12;;;;;;;11.20;6.90;;;;;;;;;;6274037;28;20200;-60
2023/03/06 02:35:18;;;;;;;12.37;7.50;;;;;;;;;;6256286;28;20250;-60
2023/03/06 02:38:20;;;;;;;13.63;8.40;;;;;;;;;;6262306;28;20185;-60
2023/03/06 02:41:21;;;;;;;10.77;7.33;;;;;;;;;;6273481;28;20194;-60
2023/03/06 02:44:22;;;;;;;11.00;7.90;;;;;;;;;;6249752;28;20201;-60
2023/03/06 02:47:23;;;;;;;12.10;8.03;;;;;;;;;;6262534;28;20233;-60
2023/03/06 02:50:25;;;;;;;9.80;7.43;;;;;;;;;;6247893;28;20247;-60
2023/03/06 02:53:26;;;;;;;10.37;7.60;;;;;;;;;;6252872;28;20233;-60
2023/03/06 02:56:27;;;;;;;10.87;7.50;;;;;;;;;;6262650;28;20193;-60
2023/03/06 02:59:28;;;;;;;10.63;7.73;;;;;;;;;;6257025;28;20236;-60
2023/03/06 03:02:29;;;;;;;8.90;7.40;;;;;;;;;;6258173;28;20194;-61
2023/03/06 03:05:30;;;;;;;10.67;7.53;;;;;;;;;;6238024;28;20201;-60
2023/03/06 03:08:32;;;;;;;10.40;7.70;;;;;;;;;;6268156;28;20198;-60
2023/03/06 03:11:33;;;;;;;11.00;8.33;;;;;;;;;;6272301;28;20190;-60
2023/03/06 03:14:34;;;;;;;10.07;7.37;;;;;;;;;;6250434;28;20222;-60
2023/03/06 03:17:36;;;;;;;11.43;7.73;;;;;;;;;;6266804;28;20186;-60
2023/03/06 03:20:40;;;;;;;13.17;8.40;;;;;;;;;;6270853;28;20225;-60
2023/03/06 03:23:41;;;;;;;11.13;7.33;;;;;;;;;;6265405;28;20198;-60
2023/03/06 03:26:42;;;;;;;11.27;8.03;;;;;;;;;;6258878;28;20193;-60
2023/03/06 03:29:43;;;;;;;10.80;7.20;;;;;;;;;;6253835;28;20249;-60
2023/03/06 03:32:44;;;;;;;10.73;8.03;;;;;;;;;;6257505;28;20238;-60
2023/03/06 03:35:46;;;;;;;12.00;8.47;;;;;;;;;;6243898;28;20189;-60
2023/03/06 03:38:47;;;;;;;10.17;8.07;;;;;;;;;;6256316;28;20201;-60
2023/03/06 03:41:48;;;;;;;10.53;8.00;;;;;;;;;;6259963;28;20243;-60
2023/03/06 03:44:49;;;;;;;15.73;8.47;;;;;;;;;;6250374;28;20194;-60
2023/03/06 03:47:50;;;;;;;11.50;8.27;;;;;;;;;;6259663;28;20216;-60
2023/03/06 03:50:51;;;;;;;12.93;7.93;;;;;;;;;;6255863;28;20201;-60
2023/03/06 03:53:52;;;;;;;9.93;7.70;;;;;;;;;;6237145;28;20221;-60
2023/03/06 03:56:53;;;;;;;10.40;7.50;;;;;;;;;;6261326;28;20194;-60
2023/03/06 03:59:54;;;;;;;9.83;7.30;;;;;;;;;;6246417;28;20243;-60
2023/03/06 04:02:57;;;;;;;11.30;7.97;;;;;;;;;;6263452;28;20190;-57
2023/03/06 04:05:59;;;;;;;9.77;7.13;;;;;;;;;;6249653;28;20198;-57
2023/03/06 04:09:00;;;;;;;11.60;8.10;;;;;;;;;;6261202;28;20209;-57
2023/03/06 04:12:01;;;;;;;14.37;8.37;;;;;;;;;;6242546;28;20182;-57
2023/03/06 04:15:03;;;;;;;12.33;7.73;;;;;;;;;;6253581;28;20216;-57
2023/03/06 04:18:04;;;;;;;12.90;8.33;;;;;;;;;;6262129;28;20195;-58
2023/03/06 04:21:05;;;;;;;13.07;8.23;;;;;;;;;;6261100;28;20304;-58
2023/03/06 04:24:07;;;;;;;12.70;8.10;;;;;;;;;;6264735;28;20208;-58
2023/03/06 04:27:08;;;;;;;11.90;8.27;;;;;;;;;;6263187;28;20205;-59
2023/03/06 04:30:09;;;;;;;9.90;7.10;;;;;;;;;;6257966;28;20233;-59
2023/03/06 04:33:10;;;;;;;12.00;8.27;;;;;;;;;;6265377;28;20217;-60
2023/03/06 04:36:16;;;;;;;12.80;8.40;;;;;;;;;;6246785;28;20201;-59
2023/03/06 04:39:17;;;;;;;11.97;7.93;;;;;;;;;;6258517;28;20194;-59
2023/03/06 04:42:18;;;;;;;12.10;8.23;;;;;;;;;;6255699;28;20189;-59
2023/03/06 04:45:20;;;;;;;11.23;7.63;;;;;;;;;;6263635;28;20279;-59
2023/03/06 04:48:21;;;;;;;11.87;7.37;;;;;;;;;;6266679;28;20186;-59
2023/03/06 04:51:22;;;;;;;12.33;7.77;;;;;;;;;;6253724;28;20197;-60
2023/03/06 04:54:23;;;;;;;12.27;8.90;;;;;;;;;;6251242;28;20210;-59
2023/03/06 04:57:24;;;;;;;9.10;7.23;;;;;;;;;;6260717;28;20288;-59
2023/03/06 05:00:30;;;;;;;14.63;9.10;;;;;;;;;;6251027;28;20281;-59
2023/03/06 05:03:31;;;;;;;13.27;9.00;;;;;;;;;;6252387;28;20227;-58
2023/03/06 05:06:32;;;;;;;12.33;8.27;;;;;;;;;;6263818;28;20198;-59
2023/03/06 05:09:34;;;;;;;10.63;7.80;;;;;;;;;;6265223;28;20186;-59
2023/03/06 05:12:36;;;;;;;10.03;7.77;;;;;;;;;;6261268;28;20209;-58
2023/03/06 05:15:39;;;;;;;13.93;7.63;;;;;;;;;;6257998;28;20205;-59
2023/03/06 05:18:40;;;;;;;11.87;7.83;;;;;;;;;;6260651;28;20190;-59
2023/03/06 05:21:41;;;;;;;11.50;7.17;;;;;;;;;;6256793;28;20205;-59
2023/03/06 05:24:42;;;;;;;10.50;8.13;;;;;;;;;;6255929;28;20212;-55
2023/03/06 05:27:44;;;;;;;12.33;8.03;;;;;;;;;;6259326;28;20201;-56
2023/03/06 05:30:45;;;;;;;11.43;7.90;;;;;;;;;;6262576;28;20250;-58
2023/03/06 05:33:46;;;;;;;10.97;8.23;;;;;;;;;;6249258;28;20218;-54
2023/03/06 05:36:47;;;;;;;12.07;8.37;;;;;;;;;;6249655;28;20194;-57
2023/03/06 05:39:49;;;;;;;12.33;9.10;;;;;;;;;;6261167;28;20443;-56
2023/03/06 05:42:50;;;;;;;12.63;8.43;;;;;;;;;;6264096;28;20224;-56
2023/03/06 05:45:51;;;;;;;14.37;8.20;;;;;;;;;;6239725;28;20197;-58
2023/03/06 05:48:56;;;;;;;11.93;7.90;;;;;;;;;;6265063;28;20194;-58
2023/03/06 05:51:57;;;;;;;14.37;8.20;;;;;;;;;;6274197;28;20190;-59
2023/03/06 05:54:58;;;;;;;13.07;7.87;;;;;;;;;;6246615;28;20221;-58
2023/03/06 05:57:59;;;;;;;11.13;6.93;;;;;;;;;;6254547;28;20185;-55
2023/03/06 06:01:08;;;;;;;14.20;8.07;;;;;;;;;;6255388;28;20217;-56
2023/03/06 06:04:10;;;;;;;11.00;7.93;;;;;;;;;;6268444;28;20190;-56
2023/03/06 06:07:15;;;;;;;11.10;7.70;;;;;;;;;;6246778;28;20229;-57
2023/03/06 06:10:16;;;;;;;11.33;8.33;;;;;;;;;;6254406;28;20199;-57
2023/03/06 06:13:17;;;;;;;13.97;8.57;;;;;;;;;;6249541;28;20221;-58
2023/03/06 06:16:18;;;;;;;10.27;7.17;;;;;;;;;;6267428;28;20232;-58
2023/03/06 06:19:19;;;;;;;10.47;8.20;;;;;;;;;;6251151;28;20213;-58
2023/03/06 06:22:20;;;;;;;12.87;8.60;;;;;;;;;;6267233;28;20192;-58
2023/03/06 06:25:22;;;;;;;11.33;8.30;;;;;;;;;;6263772;28;20198;-59
2023/03/06 06:28:23;;;;;;;12.50;8.33;;;;;;;;;;6265103;28;20198;-57
2023/03/06 06:31:24;;;;;;;13.80;8.80;;;;;;;;;;6260669;28;20200;-55
2023/03/06 06:34:25;;;;;;;8.97;7.90;;;;;;;;;;6242778;28;20361;-56
2023/03/06 06:37:26;;;;;;;13.67;8.73;;;;;;;;;;6253842;28;20307;-57
2023/03/06 06:40:28;;;;;;;12.33;8.37;;;;;;;;;;6266427;28;20198;-58
2023/03/06 06:43:29;;;;;;;14.07;8.50;;;;;;;;;;6258787;28;20214;-57
2023/03/06 06:46:30;;;;;;;11.33;8.43;;;;;;;;;;6262747;28;20225;-57
2023/03/06 06:49:31;;;;;;;13.53;8.57;;;;;;;;;;6263780;28;20191;-56
2023/03/06 06:52:32;;;;;;;14.00;9.63;;;;;;;;;;6251490;28;20218;-55
2023/03/06 06:55:33;;;;;;;16.87;8.97;;;;;;;;;;6270164;28;20209;-58
2023/03/06 06:58:34;;;;;;;14.30;8.47;;;;;;;;;;6236862;28;20210;-57
2023/03/06 07:01:35;;;;;;;14.23;9.30;;;;;;;;;;6267231;28;20196;-57
2023/03/06 07:04:38;;;;;;;12.17;8.63;;;;;;;;;;6243248;28;20248;-60
2023/03/06 07:07:39;;;;;;;11.60;8.97;;;;;;;;;;6269585;28;20195;-58
2023/03/06 07:10:40;;;;;;;12.50;8.40;;;;;;;;;;6257016;28;20205;-59
2023/03/06 07:13:41;;;;;;;11.03;7.83;;;;;;;;;;6242863;28;20273;-60
2023/03/06 07:16:42;;;;;;;12.77;8.33;;;;;;;;;;6265463;28;20360;-59
2023/03/06 07:19:43;;;;;;;15.13;8.63;;;;;;;;;;6265743;28;20186;-59
2023/03/06 07:22:44;;;;;;;11.63;8.33;;;;;;;;;;6245256;28;20185;-59
2023/03/06 07:25:45;;;;;;;12.60;8.37;;;;;;;;;;6263620;28;20190;-59
2023/03/06 07:28:48;;;;;;;15.23;9.57;;;;;;;;;;6267110;28;20237;-59
2023/03/06 07:31:49;;;;;;;10.73;8.33;;;;;;;;;;6239250;28;20194;-60
2023/03/06 07:34:50;;;;;;;11.77;8.50;;;;;;;;;;6243737;28;20221;-58
2023/03/06 07:37:51;;;;;;;10.70;8.17;;;;;;;;;;6256598;28;20190;-59
2023/03/06 07:40:53;;;;;;;13.47;9.17;;;;;;;;;;6252127;28;20190;-60
2023/03/06 07:43:54;;;;;;;13.30;9.47;;;;;;;;;;6269827;28;20190;-58
2023/03/06 07:46:55;;;;;;;11.70;8.67;;;;;;;;;;6260816;28;20198;-59
2023/03/06 07:49:57;;;;;;;11.10;8.37;;;;;;;;;;6264246;28;20251;-59
2023/03/06 07:52:58;;;;;;;13.60;9.30;;;;;;;;;;6263181;28;20202;-58
2023/03/06 07:55:59;;;;;;;12.73;9.67;;;;;;;;;;6257694;28;20200;-58
2023/03/06 07:59:01;;;;;;;11.17;8.33;;;;;;;;;;6250529;28;20187;-58
2023/03/06 08:02:02;;;;;;;12.97;9.63;;;;;;;;;;6259924;28;20220;-58
2023/03/06 08:05:03;;;;;;;13.43;9.87;;;;;;;;;;6234777;28;20244;-59
2023/03/06 08:08:04;;;;;;;13.00;9.20;;;;;;;;;;6267279;28;20221;-59
2023/03/06 08:11:06;;;;;;;14.67;9.27;;;;;;;;;;6247832;28;20205;-58
2023/03/06 08:14:07;;;;;;;13.17;9.17;;;;;;;;;;6243120;28;20214;-58
2023/03/06 08:17:08;;;;;;;13.87;8.77;;;;;;;;;;6254812;28;20263;-59
2023/03/06 08:20:10;;;;;;;15.13;9.03;;;;;;;;;;6249583;28;20194;-59
2023/03/06 08:23:11;;;;;;;14.70;9.47;;;;;;;;;;6258459;28;20189;-59
2023/03/06 08:26:16;;;;;;;13.80;9.13;;;;;;;;;;6270936;28;20193;-59
2023/03/06 08:29:17;;;;;;;11.80;9.43;;;;;;;;;;6268020;28;20241;-59
2023/03/06 08:32:18;;;;;;;13.60;9.53;;;;;;;;;;6250835;28;20190;-59
2023/03/06 08:35:19;;;;;;;12.60;9.40;;;;;;;;;;6260234;28;20220;-59
2023/03/06 08:38:20;;;;;;;12.37;8.83;;;;;;;;;;6254810;28;20198;-59
2023/03/06 08:41:21;;;;;;;13.17;8.50;;;;;;;;;;6242993;28;20671;-60
2023/03/06 08:44:22;;;;;;;13.10;9.70;;;;;;;;;;6264049;28;20190;-59
2023/03/06 08:47:23;;;;;;;15.80;9.60;;;;;;;;;;6264632;28;20240;-57
2023/03/06 08:50:24;;;;;;;14.93;10.07;;;;;;;;;;6271053;28;20198;-56
2023/03/06 08:53:26;;;;;;;12.73;9.93;;;;;;;;;;6248599;28;20225;-58
2023/03/06 08:56:28;;;;;;;15.77;10.03;;;;;;;;;;6251368;28;20185;-56
2023/03/06 08:59:29;;;;;;;14.20;10.10;;;;;;;;;;6261857;28;20190;-55
2023/03/06 09:02:31;;;;;;;13.37;9.30;;;;;;;;;;6253910;28;20185;-58
2023/03/06 09:05:32;;;;;;;13.20;9.73;;;;;;;;;;6245899;28;20221;-58
2023/03/06 09:08:33;;;;;;;13.90;10.10;;;;;;;;;;6272620;28;20231;-59
2023/03/06 09:11:34;;;;;;;15.83;9.77;;;;;;;;;;6273962;28;20198;-59
2023/03/06 09:14:35;;;;;;;14.47;10.80;;;;;;;;;;6263202;28;20221;-59
2023/03/06 09:17:36;;;;;;;14.37;10.30;;;;;;;;;;6259715;28;20249;-58
2023/03/06 09:20:38;;;;;;;12.43;9.97;;;;;;;;;;6254998;28;20190;-59
2023/03/06 09:23:39;;;;;;;14.17;9.30;;;;;;;;;;6267448;28;20232;-60
2023/03/06 09:26:40;;;;;;;14.53;10.57;;;;;;;;;;6251810;28;20205;-59
2023/03/06 09:29:41;;;;;;;12.33;10.10;;;;;;;;;;6263466;28;20233;-59
2023/03/06 09:32:42;;;;;;;13.03;10.03;;;;;;;;;;6269215;28;20248;-57
2023/03/06 09:35:55;;;;;;;14.87;9.90;;;;;;;;;;6251053;28;20234;-60
2023/03/06 09:38:56;;;;;;;14.70;9.90;;;;;;;;;;6274479;28;20190;-59
2023/03/06 09:41:57;;;;;;;13.67;9.50;;;;;;;;;;6272061;28;20243;-59
2023/03/06 09:44:59;;;;;;;15.03;10.93;;;;;;;;;;6265923;28;20194;-59
2023/03/06 09:48:04;;;;;;;17.30;11.63;;;;;;;;;;6270432;28;20197;-60
2023/03/06 09:51:10;;;;;;;12.70;10.50;;;;;;;;;;6266191;28;20201;-58
2023/03/06 09:54:12;;;;;;;17.03;11.53;;;;;;;;;;6271384;28;20214;-60
2023/03/06 09:57:18;;;;;;;14.20;10.83;;;;;;;;;;6263557;28;20190;-59
2023/03/06 10:00:23;;;;;;;14.50;10.90;;;;;;;;;;6275646;28;20262;-59
2023/03/06 10:03:33;;;;;;;16.13;11.03;;;;;;;;;;6265595;28;20245;-59
2023/03/06 10:06:49;;;;;;;14.27;11.17;;;;;;;;;;6288716;28;20194;-58
2023/03/06 10:09:56;;;;;;;14.63;11.47;;;;;;;;;;6267832;28;20191;-58
2023/03/06 10:13:02;;;;;;;15.17;11.10;;;;;;;;;;6253505;28;20195;-59
2023/03/06 10:16:22;;;;;;;16.10;11.93;;;;;;;;;;6278017;28;20186;-59
2023/03/06 10:19:27;;;;;;;15.67;13.00;;;;;;;;;;6262293;28;20256;-58
2023/03/06 10:22:30;;;;;;;17.17;10.63;;;;;;;;;;6275526;28;20181;-59
2023/03/06 10:25:40;;;;;;;15.10;11.40;;;;;;;;;;6258561;28;20194;-59
2023/03/06 10:28:43;;;;;;;20.07;11.70;;;;;;;;;;6263603;28;20259;-59
2023/03/06 10:31:47;;;;;;;14.63;11.33;;;;;;;;;;6260199;28;20194;-60
2023/03/06 10:34:49;;;;;;;17.23;11.90;;;;;;;;;;6264616;28;20249;-59
2023/03/06 10:37:50;;;;;;;16.70;12.07;;;;;;;;;;6246620;28;20212;-59
2023/03/06 10:41:00;;;;;;;16.33;11.93;;;;;;;;;;6252504;28;20203;-59
2023/03/06 10:44:05;;;;;;;15.70;10.90;;;;;;;;;;6253854;28;20252;-59
2023/03/06 10:47:30;;;;;;;16.17;11.23;;;;;;;;;;6273271;28;20187;-59
2023/03/06 10:50:31;;;;;;;14.50;10.67;;;;;;;;;;6267348;28;20225;-60
2023/03/06 10:53:32;;;;;;;13.33;10.63;;;;;;;;;;6247944;28;20225;-59
2023/03/06 10:56:37;;;;;;;16.93;11.27;;;;;;;;;;6245242;28;20213;-59
2023/03/06 10:59:49;;;;;;;17.17;12.70;;;;;;;;;;6266751;28;20217;-58
2023/03/06 11:03:25;;;;;;;17.80;12.40;;;;;;;;;;6271821;28;20201;-58
2023/03/06 11:06:34;;;;;;;15.20;11.63;;;;;;;;;;6242740;28;20195;-57
2023/03/06 11:09:35;;;;;;;12.83;10.70;;;;;;;;;;6261852;28;20212;-54
2023/03/06 11:12:38;;;;;;;19.03;12.17;;;;;;;;;;6261201;28;20183;-54
2023/03/06 11:15:39;;;;;;;13.90;10.73;;;;;;;;;;6253643;28;20211;-57
2023/03/06 11:18:41;;;;;;;17.90;12.20;;;;;;;;;;6265152;28;20190;-56
2023/03/06 11:21:42;;;;;;;15.53;12.83;;;;;;;;;;6246304;28;20218;-58
2023/03/06 11:24:49;;;;;;;16.70;13.00;;;;;;;;;;6251474;28;20248;-57
2023/03/06 11:27:54;;;;;;;15.87;11.93;;;;;;;;;;6265442;28;20197;-57
2023/03/06 11:31:01;;;;;;;16.17;12.70;;;;;;;;;;6281407;28;20323;-57
2023/03/06 11:34:11;;;;;;;18.10;12.77;;;;;;;;;;6267891;28;20218;-57
2023/03/06 11:37:24;;;;;;;18.90;13.93;;;;;;;;;;6264585;28;20979;-57
2023/03/06 11:40:30;;;;;;;15.37;12.23;;;;;;;;;;6263395;28;20190;-57
2023/03/06 11:43:39;;;;;;;15.10;11.87;;;;;;;;;;6262840;28;20201;-57
2023/03/06 11:46:43;;;;;;;17.33;11.13;;;;;;;;;;6261484;28;20201;-56
2023/03/06 11:49:46;;;;;;;19.57;12.60;;;;;;;;;;6260326;28;20239;-57
2023/03/06 11:52:50;;;;;;;19.70;13.37;;;;;;;;;;6276905;28;20201;-58
2023/03/06 11:56:07;;;;;;;18.13;12.47;;;;;;;;;;6269494;28;20231;-57
2023/03/06 11:59:27;;;;;;;19.83;14.10;;;;;;;;;;6265076;28;20280;-58
2023/03/06 12:02:47;;;;;;;17.47;12.80;;;;;;;;;;6264923;28;20216;-58
2023/03/06 12:05:48;;;;;;;18.73;13.37;;;;;;;;;;6264191;28;20221;-58
2023/03/06 12:08:55;;;;;;;18.70;12.60;;;;;;;;;;6266170;28;20186;-58
2023/03/06 12:12:02;;;;;;;16.57;12.13;;;;;;;;;;6270072;28;20189;-58
2023/03/06 12:15:14;;;;;;;18.00;12.90;;;;;;;;;;6256518;28;20210;-58
2023/03/06 12:18:35;;;;;;;15.03;11.60;;;;;;;;;;6278261;28;20213;-58
2023/03/06 12:21:43;;;;;;;15.90;11.60;;;;;;;;;;6243653;28;20230;-58
2023/03/06 12:24:57;;;;;;;16.00;11.97;;;;;;;;;;6261325;28;20248;-56
2023/03/06 12:28:01;;;;;;;18.43;12.57;;;;;;;;;;6266688;28;20186;-57
2023/03/06 12:31:11;;;;;;;17.27;11.60;;;;;;;;;;6272403;28;20242;-58
2023/03/06 12:34:12;;;;;;;20.17;13.63;;;;;;;;;;6254976;28;20313;-57
2023/03/06 12:37:21;;;;;;;17.90;13.40;;;;;;;;;;6254436;28;20201;-57
2023/03/06 12:40:25;;;;;;;19.43;14.00;;;;;;;;;;6259498;28;20191;-56
2023/03/06 12:43:26;;;;;;;18.43;12.00;;;;;;;;;;6270789;28;20197;-58
2023/03/06 12:46:29;;;;;;;18.07;12.63;;;;;;;;;;6270228;28;20316;-58
2023/03/06 12:49:37;;;;;;;18.47;13.07;;;;;;;;;;6277963;28;20276;-58
2023/03/06 12:52:38;;;;;;;18.67;12.53;;;;;;;;;;6263315;28;20266;-57
2023/03/06 12:55:41;;;;;;;18.60;12.53;;;;;;;;;;6250159;28;20293;-58
2023/03/06 12:58:47;;;;;;;16.30;11.47;;;;;;;;;;6273170;28;20193;-58
2023/03/06 13:01:52;;;;;;;20.57;12.90;;;;;;;;;;6269852;28;20211;-58
2023/03/06 13:05:00;;;;;;;19.77;12.90;;;;;;;;;;6257893;28;20190;-57
2023/03/06 13:08:14;;;;;;;19.73;12.63;;;;;;;;;;6267530;28;20189;-57
2023/03/06 13:11:21;;;;;;;18.27;12.77;;;;;;;;;;6261143;28;20199;-56
2023/03/06 13:14:25;;;;;;;18.23;13.73;;;;;;;;;;6268225;28;20345;-57
2023/03/06 13:17:31;;;;;;;14.67;11.57;;;;;;;;;;6269939;28;20190;-57
2023/03/06 13:20:34;;;;;;;16.83;13.00;;;;;;;;;;6264730;28;20191;-57
2023/03/06 13:23:49;;;;;;;17.40;13.30;;;;;;;;;;6276794;28;20268;-57
2023/03/06 13:26:53;;;;;;;17.67;11.90;;;;;;;;;;6273718;28;20199;-57
2023/03/06 13:30:03;;;;;;;18.23;13.67;;;;;;;;;;6275459;28;20279;-57
2023/03/06 13:33:24;;;;;;;14.90;11.10;;;;;;;;;;6268480;28;20221;-57
2023/03/06 13:36:25;;;;;;;22.40;12.10;;;;;;;;;;6260087;28;20204;-57
2023/03/06 13:39:46;;;;;;;15.33;11.43;;;;;;;;;;6260841;28;20194;-56
2023/03/06 13:42:50;;;;;;;14.03;10.80;;;;;;;;;;6251762;28;20195;-56
2023/03/06 13:45:51;;;;;;;14.23;10.67;;;;;;;;;;6283812;28;20224;-55
2023/03/06 13:49:07;;;;;;;17.77;12.87;;;;;;;;;;6254510;28;20277;-56
2023/03/06 13:52:18;;;;;;;16.10;11.43;;;;;;;;;;6263418;28;20321;-56
2023/03/06 13:55:24;;;;;;;16.40;11.40;;;;;;;;;;6261333;28;20206;-56
2023/03/06 13:58:44;;;;;;;16.57;11.80;;;;;;;;;;6255671;28;20194;-57
2023/03/06 14:01:50;;;;;;;17.87;11.70;;;;;;;;;;6272278;28;20224;-57
2023/03/06 14:04:56;;;;;;;14.63;10.87;;;;;;;;;;6273673;28;20217;-57
2023/03/06 14:08:10;;;;;;;18.57;14.03;;;;;;;;;;6261887;28;20197;-56
2023/03/06 14:11:19;;;;;;;20.93;12.80;;;;;;;;;;6277013;28;20182;-56
2023/03/06 14:14:35;;;;;;;17.00;12.47;;;;;;;;;;6265447;28;20224;-58
2023/03/06 14:17:38;;;;;;;16.57;12.37;;;;;;;;;;6264844;28;20190;-58
2023/03/06 14:20:39;;;;;;;15.87;12.53;;;;;;;;;;6271405;28;20187;-57
2023/03/06 14:23:45;;;;;;;16.37;12.00;;;;;;;;;;6265059;28;20201;-57
2023/03/06 14:26:49;;;;;;;19.20;13.00;;;;;;;;;;6272782;28;20201;-57
2023/03/06 14:29:50;;;;;;;16.53;12.60;;;;;;;;;;6267338;28;20355;-58
2023/03/06 14:32:52;;;;;;;13.80;11.53;;;;;;;;;;6254349;28;20328;-57
2023/03/06 14:35:54;;;;;;;18.23;13.03;;;;;;;;;;6271754;28;20209;-57
2023/03/06 14:38:57;;;;;;;18.87;12.50;;;;;;;;;;6267688;28;20251;-56
2023/03/06 14:42:14;;;;;;;15.73;11.33;;;;;;;;;;6268452;28;20273;-53
2023/03/06 14:45:17;;;;;;;16.97;12.23;;;;;;;;;;6258759;28;20218;-57
2023/03/06 14:48:18;;;;;;;16.03;13.03;;;;;;;;;;6263006;28;20272;-52
2023/03/06 14:51:21;;;;;;;19.77;12.97;;;;;;;;;;6252930;28;20194;-56
2023/03/06 14:54:33;;;;;;;17.37;12.40;;;;;;;;;;6268034;28;20220;-57
2023/03/06 14:57:34;;;;;;;18.77;12.10;;;;;;;;;;6258584;28;20277;-55
2023/03/06 15:00:39;;;;;;;19.23;12.90;;;;;;;;;;6259373;28;20197;-54
2023/03/06 15:03:51;;;;;;;17.43;13.57;;;;;;;;;;6272526;28;20189;-56
2023/03/06 15:06:52;;;;;;;18.50;12.03;;;;;;;;;;6261937;28;20190;-56
2023/03/06 15:09:54;;;;;;;13.30;9.80;;;;;;;;;;6271681;28;20189;-57
2023/03/06 15:12:55;;;;;;;14.20;10.97;;;;;;;;;;6265823;28;20191;-54
2023/03/06 15:15:59;;;;;;;19.47;12.43;;;;;;;;;;6249044;28;20225;-55
2023/03/06 15:19:01;;;;;;;14.47;10.90;;;;;;;;;;6261279;28;20189;-56
2023/03/06 15:22:02;;;;;;;16.67;11.70;;;;;;;;;;6261502;28;20193;-57
2023/03/06 15:25:12;;;;;;;18.00;13.33;;;;;;;;;;6252811;28;20206;-55
2023/03/06 15:28:32;;;;;;;16.43;11.63;;;;;;;;;;6270607;28;20205;-55
2023/03/06 15:31:34;;;;;;;15.43;12.03;;;;;;;;;;6275642;28;20206;-55
2023/03/06 15:34:35;;;;;;;15.23;12.77;;;;;;;;;;6423958;23;20719;-49
2023/03/06 15:37:36;;;;;;;16.93;11.57;;;;;;;;;;6226695;28;20187;-53
2023/03/06 15:40:37;;;;;;;16.53;12.10;;;;;;;;;;6246461;28;20214;-50
2023/03/06 15:43:38;;;;;;;16.13;11.30;;;;;;;;;;6226753;28;20849;-53
2023/03/06 15:46:40;;;;;;;18.10;12.13;;;;;;;;;;6246844;28;20325;-50
2023/03/06 15:49:41;;;;;;;13.67;10.60;;;;;;;;;;6227711;28;20210;-51
2023/03/06 15:52:43;;;;;;;17.43;11.40;;;;;;;;;;6225369;28;20194;-48
2023/03/06 15:55:44;;;;;;;15.67;11.50;;;;;;;;;;6239807;28;20230;-51
2023/03/06 15:58:45;;;;;;;16.93;11.83;;;;;;;;;;6221442;28;20211;-47
2023/03/06 16:01:46;;;;;;;16.37;11.87;;;;;;;;;;6248608;28;20550;-48
2023/03/06 16:04:48;;;;;;;18.67;12.57;;;;;;;;;;6228926;28;20205;-49
2023/03/06 16:07:49;;;;;;;18.50;13.07;;;;;;;;;;6245905;28;20250;-52
2023/03/06 16:10:51;;;;;;;17.63;12.23;;;;;;;;;;6230813;28;20248;-52
2023/03/06 16:13:53;;;;;;;13.70;11.03;;;;;;;;;;6241414;28;20210;-49
2023/03/06 16:16:56;;;;;;;18.90;13.03;;;;;;;;;;6241818;28;20232;-50
2023/03/06 16:19:57;;;;;;;18.93;12.33;;;;;;;;;;6244852;28;20198;-49
2023/03/06 16:22:58;;;;;;;17.03;12.77;;;;;;;;;;6230868;28;20187;-49
2023/03/06 16:25:59;;;;;;;16.83;11.90;;;;;;;;;;6243778;28;20204;-49
2023/03/06 16:29:01;;;;;;;13.17;10.43;;;;;;;;;;6227246;28;20661;-50
2023/03/06 16:32:03;;;;;;;15.17;11.23;;;;;;;;;;6242704;28;20191;-49
2023/03/06 16:35:04;;;;;;;13.80;10.57;;;;;;;;;;6216877;28;20247;-51
2023/03/06 16:38:05;;;;;;;16.93;12.37;;;;;;;;;;6242762;28;20198;-47
2023/03/06 16:41:06;;;;;;;17.23;12.33;;;;;;;;;;6253672;28;20190;-52
2023/03/06 16:44:09;;;;;;;15.43;11.00;;;;;;;;;;6231453;28;20222;-51
2023/03/06 16:47:11;;;;;;;19.03;12.60;;;;;;;;;;6229025;28;20194;-48
2023/03/06 16:50:23;;;;;;;15.97;11.07;;;;;;;;;;6252453;28;20190;-51
2023/03/06 16:53:24;;;;;;;15.43;11.40;;;;;;;;;;6245569;28;20325;-54
2023/03/06 16:56:25;;;;;;;16.10;10.93;;;;;;;;;;6234865;28;20661;-54
2023/03/06 16:59:26;;;;;;;17.23;12.40;;;;;;;;;;6236153;28;20642;-53
2023/03/06 17:02:27;;;;;;;16.83;11.90;;;;;;;;;;6227007;28;20281;-49
2023/03/06 17:05:32;;;;;;;16.37;11.33;;;;;;;;;;6230298;28;20240;-52
2023/03/06 17:08:33;;;;;;;18.97;11.80;;;;;;;;;;6244661;28;20198;-53
2023/03/06 17:11:37;;;;;;;16.97;12.43;;;;;;;;;;6222626;28;20202;-55
2023/03/06 17:14:38;;;;;;;14.33;10.77;;;;;;;;;;6240070;28;20990;-51
2023/03/06 17:17:39;;;;;;;17.93;10.90;;;;;;;;;;6238735;28;20201;-51
2023/03/06 17:20:47;;;;;;;15.23;10.73;;;;;;;;;;6226315;28;20593;-53
2023/03/06 17:23:49;;;;;;;19.57;12.47;;;;;;;;;;6238161;28;20200;-54
2023/03/06 17:26:51;;;;;;;17.80;12.07;;;;;;;;;;6243560;28;20198;-57
2023/03/06 17:29:52;;;;;;;18.30;11.33;;;;;;;;;;6225768;28;20249;-57
2023/03/06 17:32:53;;;;;;;23.57;13.03;;;;;;;;;;6235679;28;20194;-55
2023/03/06 17:35:59;;;;;;;17.90;12.30;;;;;;;;;;6235784;28;20245;-56
2023/03/06 17:39:01;;;;;;;19.87;12.33;;;;;;;;;;6251798;28;20206;-55
2023/03/06 17:42:03;;;;;;;15.83;11.03;;;;;;;;;;6251362;28;20191;-53
2023/03/06 17:45:05;;;;;;;16.67;11.97;;;;;;;;;;6235593;28;20205;-52
2023/03/06 17:48:06;;;;;;;16.60;12.13;;;;;;;;;;6241953;28;20224;-55
2023/03/06 17:51:08;;;;;;;18.90;12.87;;;;;;;;;;6245683;28;20277;-56
2023/03/06 17:54:09;;;;;;;23.10;13.90;;;;;;;;;;6250462;28;20214;-53